sensor_id;sensor_type;location;lat;lon;timestamp;P1;durP1;ratioP1;P2;durP2;ratioP2
66487;SDS011;53304;54.550;18.526;2022-08-19T00:01:30;4.82;;;3.20;;
66487;SDS011;53304;54.550;18.526;2022-08-19T00:03:59;6.10;;;3.40;;
66487;SDS011;53304;54.550;18.526;2022-08-19T00:06:29;6.05;;;3.78;;
66487;SDS011;53304;54.550;18.526;2022-08-19T00:08:55;5.28;;;3.50;;
66487;SDS011;53304;54.550;18.526;2022-08-19T00:11:25;6.65;;;3.40;;
66487;SDS011;53304;54.550;18.526;2022-08-19T00:13:53;6.30;;;3.42;;
66487;SDS011;53304;54.550;18.526;2022-08-19T00:16:19;6.00;;;3.40;;
66487;SDS011;53304;54.550;18.526;2022-08-19T00:18:45;5.95;;;3.55;;
66487;SDS011;53304;54.550;18.526;2022-08-19T00:21:11;4.93;;;3.42;;
66487;SDS011;53304;54.550;18.526;2022-08-19T00:23:36;6.03;;;3.13;;
66487;SDS011;53304;54.550;18.526;2022-08-19T00:26:04;4.63;;;3.22;;
66487;SDS011;53304;54.550;18.526;2022-08-19T00:28:30;5.43;;;3.70;;
66487;SDS011;53304;54.550;18.526;2022-08-19T00:30:56;4.95;;;3.60;;
66487;SDS011;53304;54.550;18.526;2022-08-19T00:33:21;4.93;;;3.20;;
66487;SDS011;53304;54.550;18.526;2022-08-19T00:35:47;5.68;;;3.33;;
66487;SDS011;53304;54.550;18.526;2022-08-19T00:38:14;5.43;;;3.45;;
66487;SDS011;53304;54.550;18.526;2022-08-19T00:40:42;6.32;;;3.53;;
66487;SDS011;53304;54.550;18.526;2022-08-19T00:43:12;6.03;;;3.47;;
66487;SDS011;53304;54.550;18.526;2022-08-19T00:45:41;5.80;;;3.70;;
66487;SDS011;53304;54.550;18.526;2022-08-19T00:48:08;5.85;;;3.30;;
66487;SDS011;53304;54.550;18.526;2022-08-19T00:50:37;7.18;;;3.60;;
66487;SDS011;53304;54.550;18.526;2022-08-19T00:53:05;6.18;;;3.72;;
66487;SDS011;53304;54.550;18.526;2022-08-19T00:55:31;5.22;;;3.60;;
66487;SDS011;53304;54.550;18.526;2022-08-19T00:58:07;7.40;;;3.80;;
66487;SDS011;53304;54.550;18.526;2022-08-19T01:00:34;6.43;;;3.60;;
66487;SDS011;53304;54.550;18.526;2022-08-19T01:03:03;6.25;;;3.85;;
66487;SDS011;53304;54.550;18.526;2022-08-19T01:05:32;7.65;;;3.90;;
66487;SDS011;53304;54.550;18.526;2022-08-19T01:08:04;5.70;;;3.53;;
66487;SDS011;53304;54.550;18.526;2022-08-19T01:10:52;6.05;;;3.58;;
66487;SDS011;53304;54.550;18.526;2022-08-19T01:13:30;5.82;;;3.90;;
66487;SDS011;53304;54.550;18.526;2022-08-19T01:16:00;6.15;;;3.80;;
66487;SDS011;53304;54.550;18.526;2022-08-19T01:18:30;7.60;;;4.18;;
66487;SDS011;53304;54.550;18.526;2022-08-19T01:23:34;5.78;;;4.03;;
66487;SDS011;53304;54.550;18.526;2022-08-19T01:26:09;6.53;;;3.55;;
66487;SDS011;53304;54.550;18.526;2022-08-19T01:28:39;5.75;;;3.85;;
66487;SDS011;53304;54.550;18.526;2022-08-19T01:31:05;5.93;;;3.78;;
66487;SDS011;53304;54.550;18.526;2022-08-19T01:33:32;6.28;;;3.88;;
66487;SDS011;53304;54.550;18.526;2022-08-19T01:36:08;6.13;;;3.40;;
66487;SDS011;53304;54.550;18.526;2022-08-19T01:38:38;5.85;;;4.00;;
66487;SDS011;53304;54.550;18.526;2022-08-19T01:41:07;5.35;;;3.80;;
66487;SDS011;53304;54.550;18.526;2022-08-19T01:43:32;5.50;;;3.70;;
66487;SDS011;53304;54.550;18.526;2022-08-19T01:46:01;4.57;;;3.38;;
66487;SDS011;53304;54.550;18.526;2022-08-19T01:48:36;6.18;;;3.65;;
66487;SDS011;53304;54.550;18.526;2022-08-19T01:51:05;6.70;;;3.38;;
66487;SDS011;53304;54.550;18.526;2022-08-19T01:53:34;5.80;;;3.55;;
66487;SDS011;53304;54.550;18.526;2022-08-19T01:56:02;6.07;;;3.60;;
66487;SDS011;53304;54.550;18.526;2022-08-19T01:58:37;6.18;;;3.22;;
66487;SDS011;53304;54.550;18.526;2022-08-19T02:01:05;5.68;;;3.33;;
66487;SDS011;53304;54.550;18.526;2022-08-19T02:03:33;6.22;;;3.55;;
66487;SDS011;53304;54.550;18.526;2022-08-19T02:06:02;5.88;;;3.55;;
66487;SDS011;53304;54.550;18.526;2022-08-19T02:08:30;6.13;;;3.60;;
66487;SDS011;53304;54.550;18.526;2022-08-19T02:11:01;7.05;;;3.63;;
66487;SDS011;53304;54.550;18.526;2022-08-19T02:13:27;7.05;;;3.40;;
66487;SDS011;53304;54.550;18.526;2022-08-19T02:15:52;6.22;;;3.22;;
66487;SDS011;53304;54.550;18.526;2022-08-19T02:18:18;5.28;;;3.58;;
66487;SDS011;53304;54.550;18.526;2022-08-19T02:20:43;5.47;;;3.42;;
66487;SDS011;53304;54.550;18.526;2022-08-19T02:23:12;5.20;;;3.40;;
66487;SDS011;53304;54.550;18.526;2022-08-19T02:25:39;8.77;;;3.67;;
66487;SDS011;53304;54.550;18.526;2022-08-19T02:28:09;5.65;;;3.55;;
66487;SDS011;53304;54.550;18.526;2022-08-19T02:30:34;6.18;;;3.45;;
66487;SDS011;53304;54.550;18.526;2022-08-19T02:33:00;5.32;;;3.50;;
66487;SDS011;53304;54.550;18.526;2022-08-19T02:35:25;5.53;;;3.38;;
66487;SDS011;53304;54.550;18.526;2022-08-19T02:37:51;4.72;;;3.17;;
66487;SDS011;53304;54.550;18.526;2022-08-19T02:40:35;5.20;;;3.45;;
66487;SDS011;53304;54.550;18.526;2022-08-19T02:43:04;5.30;;;3.50;;
66487;SDS011;53304;54.550;18.526;2022-08-19T02:45:35;5.55;;;3.47;;
66487;SDS011;53304;54.550;18.526;2022-08-19T02:48:02;5.80;;;3.50;;
66487;SDS011;53304;54.550;18.526;2022-08-19T02:50:28;5.20;;;3.47;;
66487;SDS011;53304;54.550;18.526;2022-08-19T02:52:53;5.38;;;3.60;;
66487;SDS011;53304;54.550;18.526;2022-08-19T02:55:21;5.25;;;3.70;;
66487;SDS011;53304;54.550;18.526;2022-08-19T02:57:47;5.25;;;3.25;;
66487;SDS011;53304;54.550;18.526;2022-08-19T03:00:12;5.25;;;3.28;;
66487;SDS011;53304;54.550;18.526;2022-08-19T03:02:39;5.80;;;3.35;;
66487;SDS011;53304;54.550;18.526;2022-08-19T03:05:05;6.10;;;3.40;;
66487;SDS011;53304;54.550;18.526;2022-08-19T03:07:31;5.55;;;3.63;;
66487;SDS011;53304;54.550;18.526;2022-08-19T03:10:02;6.00;;;3.45;;
66487;SDS011;53304;54.550;18.526;2022-08-19T03:12:28;5.00;;;3.40;;
66487;SDS011;53304;54.550;18.526;2022-08-19T03:14:56;4.95;;;3.33;;
66487;SDS011;53304;54.550;18.526;2022-08-19T03:17:21;4.80;;;3.38;;
66487;SDS011;53304;54.550;18.526;2022-08-19T03:19:47;4.70;;;3.40;;
66487;SDS011;53304;54.550;18.526;2022-08-19T03:22:12;5.93;;;3.50;;
66487;SDS011;53304;54.550;18.526;2022-08-19T03:24:38;4.70;;;3.10;;
66487;SDS011;53304;54.550;18.526;2022-08-19T03:27:09;4.85;;;3.15;;
66487;SDS011;53304;54.550;18.526;2022-08-19T03:29:34;7.00;;;3.50;;
66487;SDS011;53304;54.550;18.526;2022-08-19T03:32:03;5.07;;;3.58;;
66487;SDS011;53304;54.550;18.526;2022-08-19T03:34:30;6.00;;;3.22;;
66487;SDS011;53304;54.550;18.526;2022-08-19T03:36:58;4.40;;;3.05;;
66487;SDS011;53304;54.550;18.526;2022-08-19T03:39:29;5.28;;;3.10;;
66487;SDS011;53304;54.550;18.526;2022-08-19T03:41:57;4.95;;;2.90;;
66487;SDS011;53304;54.550;18.526;2022-08-19T03:44:25;4.57;;;3.03;;
66487;SDS011;53304;54.550;18.526;2022-08-19T03:46:51;4.72;;;3.00;;
66487;SDS011;53304;54.550;18.526;2022-08-19T03:49:23;5.38;;;2.92;;
66487;SDS011;53304;54.550;18.526;2022-08-19T03:51:55;4.63;;;2.88;;
66487;SDS011;53304;54.550;18.526;2022-08-19T03:54:22;4.50;;;2.70;;
66487;SDS011;53304;54.550;18.526;2022-08-19T03:56:51;4.05;;;2.78;;
66487;SDS011;53304;54.550;18.526;2022-08-19T03:59:18;3.63;;;2.63;;
66487;SDS011;53304;54.550;18.526;2022-08-19T04:01:51;4.30;;;2.92;;
66487;SDS011;53304;54.550;18.526;2022-08-19T04:04:18;5.75;;;3.00;;
66487;SDS011;53304;54.550;18.526;2022-08-19T04:06:46;5.88;;;3.30;;
66487;SDS011;53304;54.550;18.526;2022-08-19T04:09:14;4.30;;;2.78;;
66487;SDS011;53304;54.550;18.526;2022-08-19T04:11:47;5.18;;;2.75;;
66487;SDS011;53304;54.550;18.526;2022-08-19T04:14:25;4.72;;;3.00;;
66487;SDS011;53304;54.550;18.526;2022-08-19T04:16:57;5.35;;;2.70;;
66487;SDS011;53304;54.550;18.526;2022-08-19T04:19:23;4.55;;;2.55;;
66487;SDS011;53304;54.550;18.526;2022-08-19T04:21:50;5.72;;;3.10;;
66487;SDS011;53304;54.550;18.526;2022-08-19T04:24:17;3.97;;;2.45;;
66487;SDS011;53304;54.550;18.526;2022-08-19T04:26:43;3.88;;;2.58;;
66487;SDS011;53304;54.550;18.526;2022-08-19T04:29:13;4.75;;;2.67;;
66487;SDS011;53304;54.550;18.526;2022-08-19T04:31:42;3.72;;;2.53;;
66487;SDS011;53304;54.550;18.526;2022-08-19T04:34:09;3.80;;;2.45;;
66487;SDS011;53304;54.550;18.526;2022-08-19T04:36:41;4.35;;;2.50;;
66487;SDS011;53304;54.550;18.526;2022-08-19T04:39:12;4.53;;;2.78;;
66487;SDS011;53304;54.550;18.526;2022-08-19T04:41:41;3.63;;;2.50;;
66487;SDS011;53304;54.550;18.526;2022-08-19T04:44:25;5.75;;;2.97;;
66487;SDS011;53304;54.550;18.526;2022-08-19T04:46:53;5.15;;;2.75;;
66487;SDS011;53304;54.550;18.526;2022-08-19T04:49:21;5.22;;;2.60;;
66487;SDS011;53304;54.550;18.526;2022-08-19T04:51:47;4.60;;;2.70;;
66487;SDS011;53304;54.550;18.526;2022-08-19T04:54:17;4.30;;;2.70;;
66487;SDS011;53304;54.550;18.526;2022-08-19T04:56:47;4.20;;;2.60;;
66487;SDS011;53304;54.550;18.526;2022-08-19T04:59:17;5.93;;;2.90;;
66487;SDS011;53304;54.550;18.526;2022-08-19T05:01:43;3.47;;;2.42;;
66487;SDS011;53304;54.550;18.526;2022-08-19T05:04:09;3.90;;;2.40;;
66487;SDS011;53304;54.550;18.526;2022-08-19T05:06:35;3.92;;;2.47;;
66487;SDS011;53304;54.550;18.526;2022-08-19T05:09:02;5.82;;;2.45;;
66487;SDS011;53304;54.550;18.526;2022-08-19T05:11:30;3.97;;;2.50;;
66487;SDS011;53304;54.550;18.526;2022-08-19T05:14:00;4.47;;;2.33;;
66487;SDS011;53304;54.550;18.526;2022-08-19T05:16:30;5.55;;;2.70;;
66487;SDS011;53304;54.550;18.526;2022-08-19T05:18:58;5.15;;;2.33;;
66487;SDS011;53304;54.550;18.526;2022-08-19T05:21:44;5.47;;;2.50;;
66487;SDS011;53304;54.550;18.526;2022-08-19T05:24:31;6.22;;;2.47;;
66487;SDS011;53304;54.550;18.526;2022-08-19T05:26:59;12.43;;;2.53;;
66487;SDS011;53304;54.550;18.526;2022-08-19T05:29:30;5.18;;;2.42;;
66487;SDS011;53304;54.550;18.526;2022-08-19T05:31:56;8.68;;;2.58;;
66487;SDS011;53304;54.550;18.526;2022-08-19T05:34:28;7.63;;;2.45;;
66487;SDS011;53304;54.550;18.526;2022-08-19T05:36:59;8.15;;;2.63;;
66487;SDS011;53304;54.550;18.526;2022-08-19T05:39:30;7.03;;;2.80;;
66487;SDS011;53304;54.550;18.526;2022-08-19T05:41:58;6.43;;;2.53;;
66487;SDS011;53304;54.550;18.526;2022-08-19T05:44:28;6.38;;;2.50;;
66487;SDS011;53304;54.550;18.526;2022-08-19T05:47:00;9.27;;;2.72;;
66487;SDS011;53304;54.550;18.526;2022-08-19T05:49:29;8.32;;;2.30;;
66487;SDS011;53304;54.550;18.526;2022-08-19T05:51:59;8.98;;;2.50;;
66487;SDS011;53304;54.550;18.526;2022-08-19T05:54:27;8.23;;;2.88;;
66487;SDS011;53304;54.550;18.526;2022-08-19T05:56:52;18.70;;;3.72;;
66487;SDS011;53304;54.550;18.526;2022-08-19T05:59:19;18.45;;;5.47;;
66487;SDS011;53304;54.550;18.526;2022-08-19T06:01:46;18.60;;;6.10;;
66487;SDS011;53304;54.550;18.526;2022-08-19T06:04:18;21.55;;;8.38;;
66487;SDS011;53304;54.550;18.526;2022-08-19T06:06:49;21.73;;;8.95;;
66487;SDS011;53304;54.550;18.526;2022-08-19T06:09:16;19.60;;;9.82;;
66487;SDS011;53304;54.550;18.526;2022-08-19T06:11:44;23.45;;;9.20;;
66487;SDS011;53304;54.550;18.526;2022-08-19T06:14:12;19.67;;;11.05;;
66487;SDS011;53304;54.550;18.526;2022-08-19T06:16:42;24.20;;;12.88;;
66487;SDS011;53304;54.550;18.526;2022-08-19T06:19:11;17.80;;;12.05;;
66487;SDS011;53304;54.550;18.526;2022-08-19T06:21:39;19.58;;;11.25;;
66487;SDS011;53304;54.550;18.526;2022-08-19T06:24:06;18.80;;;11.77;;
66487;SDS011;53304;54.550;18.526;2022-08-19T06:26:34;17.13;;;11.50;;
66487;SDS011;53304;54.550;18.526;2022-08-19T06:29:04;17.27;;;11.70;;
66487;SDS011;53304;54.550;18.526;2022-08-19T06:31:31;18.30;;;12.52;;
66487;SDS011;53304;54.550;18.526;2022-08-19T06:33:58;16.88;;;11.88;;
66487;SDS011;53304;54.550;18.526;2022-08-19T06:36:27;18.58;;;11.85;;
66487;SDS011;53304;54.550;18.526;2022-08-19T06:38:58;17.20;;;11.95;;
66487;SDS011;53304;54.550;18.526;2022-08-19T06:41:28;15.95;;;11.75;;
66487;SDS011;53304;54.550;18.526;2022-08-19T06:43:55;15.27;;;11.70;;
66487;SDS011;53304;54.550;18.526;2022-08-19T06:46:20;16.77;;;11.98;;
66487;SDS011;53304;54.550;18.526;2022-08-19T06:48:46;16.45;;;10.95;;
66487;SDS011;53304;54.550;18.526;2022-08-19T06:51:16;14.70;;;11.30;;
66487;SDS011;53304;54.550;18.526;2022-08-19T06:53:46;16.40;;;10.63;;
66487;SDS011;53304;54.550;18.526;2022-08-19T06:56:15;20.35;;;11.32;;
66487;SDS011;53304;54.550;18.526;2022-08-19T06:58:42;16.48;;;10.75;;
66487;SDS011;53304;54.550;18.526;2022-08-19T07:01:13;13.75;;;11.13;;
66487;SDS011;53304;54.550;18.526;2022-08-19T07:03:39;15.45;;;10.63;;
66487;SDS011;53304;54.550;18.526;2022-08-19T07:06:08;13.35;;;10.90;;
66487;SDS011;53304;54.550;18.526;2022-08-19T07:08:36;16.35;;;10.00;;
66487;SDS011;53304;54.550;18.526;2022-08-19T07:11:08;15.48;;;11.18;;
66487;SDS011;53304;54.550;18.526;2022-08-19T07:13:35;14.90;;;10.98;;
66487;SDS011;53304;54.550;18.526;2022-08-19T07:16:04;15.88;;;10.88;;
66487;SDS011;53304;54.550;18.526;2022-08-19T07:18:34;15.85;;;10.05;;
66487;SDS011;53304;54.550;18.526;2022-08-19T07:21:07;13.50;;;10.02;;
66487;SDS011;53304;54.550;18.526;2022-08-19T07:23:34;16.60;;;10.13;;
66487;SDS011;53304;54.550;18.526;2022-08-19T07:26:14;18.13;;;9.63;;
66487;SDS011;53304;54.550;18.526;2022-08-19T07:28:42;14.38;;;9.93;;
66487;SDS011;53304;54.550;18.526;2022-08-19T07:31:10;14.80;;;10.32;;
66487;SDS011;53304;54.550;18.526;2022-08-19T07:33:43;12.60;;;10.02;;
66487;SDS011;53304;54.550;18.526;2022-08-19T07:36:13;25.95;;;11.70;;
66487;SDS011;53304;54.550;18.526;2022-08-19T07:38:42;19.83;;;11.10;;
66487;SDS011;53304;54.550;18.526;2022-08-19T07:41:11;22.63;;;11.82;;
66487;SDS011;53304;54.550;18.526;2022-08-19T07:43:39;22.67;;;12.13;;
66487;SDS011;53304;54.550;18.526;2022-08-19T07:46:05;19.05;;;11.40;;
66487;SDS011;53304;54.550;18.526;2022-08-19T07:48:31;22.67;;;12.13;;
66487;SDS011;53304;54.550;18.526;2022-08-19T07:51:01;19.33;;;11.48;;
66487;SDS011;53304;54.550;18.526;2022-08-19T07:53:28;16.05;;;11.57;;
66487;SDS011;53304;54.550;18.526;2022-08-19T07:55:55;16.50;;;10.82;;
66487;SDS011;53304;54.550;18.526;2022-08-19T07:58:25;18.75;;;11.18;;
66487;SDS011;53304;54.550;18.526;2022-08-19T08:00:50;16.67;;;11.35;;
66487;SDS011;53304;54.550;18.526;2022-08-19T08:03:17;15.98;;;10.90;;
66487;SDS011;53304;54.550;18.526;2022-08-19T08:05:43;17.65;;;10.98;;
66487;SDS011;53304;54.550;18.526;2022-08-19T08:08:29;15.35;;;11.07;;
66487;SDS011;53304;54.550;18.526;2022-08-19T08:11:15;19.33;;;11.57;;
66487;SDS011;53304;54.550;18.526;2022-08-19T08:13:43;15.65;;;10.73;;
66487;SDS011;53304;54.550;18.526;2022-08-19T08:16:11;15.23;;;9.95;;
66487;SDS011;53304;54.550;18.526;2022-08-19T08:18:36;15.85;;;10.32;;
66487;SDS011;53304;54.550;18.526;2022-08-19T08:21:08;19.98;;;10.80;;
66487;SDS011;53304;54.550;18.526;2022-08-19T08:23:34;19.45;;;10.70;;
66487;SDS011;53304;54.550;18.526;2022-08-19T08:26:02;15.00;;;10.85;;
66487;SDS011;53304;54.550;18.526;2022-08-19T08:28:29;19.60;;;10.60;;
66487;SDS011;53304;54.550;18.526;2022-08-19T08:30:55;12.68;;;10.15;;
66487;SDS011;53304;54.550;18.526;2022-08-19T08:33:25;16.23;;;10.50;;
66487;SDS011;53304;54.550;18.526;2022-08-19T08:35:57;17.77;;;10.50;;
66487;SDS011;53304;54.550;18.526;2022-08-19T08:38:22;14.98;;;10.18;;
66487;SDS011;53304;54.550;18.526;2022-08-19T08:40:49;17.15;;;10.48;;
66487;SDS011;53304;54.550;18.526;2022-08-19T08:46:08;15.02;;;10.45;;
66487;SDS011;53304;54.550;18.526;2022-08-19T08:48:46;13.23;;;9.90;;
66487;SDS011;53304;54.550;18.526;2022-08-19T08:51:19;15.82;;;9.95;;
66487;SDS011;53304;54.550;18.526;2022-08-19T08:53:48;18.17;;;10.60;;
66487;SDS011;53304;54.550;18.526;2022-08-19T08:56:14;18.92;;;10.48;;
66487;SDS011;53304;54.550;18.526;2022-08-19T08:59:02;17.75;;;9.80;;
66487;SDS011;53304;54.550;18.526;2022-08-19T09:01:28;33.05;;;11.40;;
66487;SDS011;53304;54.550;18.526;2022-08-19T09:03:56;24.33;;;11.25;;
66487;SDS011;53304;54.550;18.526;2022-08-19T09:09:05;33.90;;;11.35;;
66487;SDS011;53304;54.550;18.526;2022-08-19T09:17:09;25.58;;;10.45;;
66487;SDS011;53304;54.550;18.526;2022-08-19T09:19:36;30.17;;;10.40;;
66487;SDS011;53304;54.550;18.526;2022-08-19T09:22:16;26.77;;;11.25;;
66487;SDS011;53304;54.550;18.526;2022-08-19T09:24:47;28.88;;;11.05;;
66487;SDS011;53304;54.550;18.526;2022-08-19T09:27:17;30.05;;;11.05;;
66487;SDS011;53304;54.550;18.526;2022-08-19T09:29:45;26.45;;;10.63;;
66487;SDS011;53304;54.550;18.526;2022-08-19T09:32:14;21.77;;;10.13;;
66487;SDS011;53304;54.550;18.526;2022-08-19T09:34:39;27.23;;;11.43;;
66487;SDS011;53304;54.550;18.526;2022-08-19T09:37:07;24.00;;;10.48;;
66487;SDS011;53304;54.550;18.526;2022-08-19T09:39:33;31.75;;;10.88;;
66487;SDS011;53304;54.550;18.526;2022-08-19T09:41:58;22.20;;;10.52;;
66487;SDS011;53304;54.550;18.526;2022-08-19T09:44:26;28.17;;;10.88;;
66487;SDS011;53304;54.550;18.526;2022-08-19T09:46:54;23.20;;;10.48;;
66487;SDS011;53304;54.550;18.526;2022-08-19T09:49:21;21.23;;;10.10;;
66487;SDS011;53304;54.550;18.526;2022-08-19T09:51:50;22.45;;;10.48;;
66487;SDS011;53304;54.550;18.526;2022-08-19T09:54:21;24.90;;;10.80;;
66487;SDS011;53304;54.550;18.526;2022-08-19T09:56:47;22.33;;;10.20;;
66487;SDS011;53304;54.550;18.526;2022-08-19T09:59:12;19.27;;;9.18;;
66487;SDS011;53304;54.550;18.526;2022-08-19T10:01:40;27.42;;;9.98;;
66487;SDS011;53304;54.550;18.526;2022-08-19T10:04:07;17.90;;;8.98;;
66487;SDS011;53304;54.550;18.526;2022-08-19T10:06:34;21.92;;;9.93;;
66487;SDS011;53304;54.550;18.526;2022-08-19T10:09:01;22.65;;;9.80;;
66487;SDS011;53304;54.550;18.526;2022-08-19T10:11:29;18.15;;;9.70;;
66487;SDS011;53304;54.550;18.526;2022-08-19T10:13:57;19.17;;;9.70;;
66487;SDS011;53304;54.550;18.526;2022-08-19T10:16:25;17.55;;;9.48;;
66487;SDS011;53304;54.550;18.526;2022-08-19T10:18:52;16.02;;;9.35;;
66487;SDS011;53304;54.550;18.526;2022-08-19T10:21:22;15.68;;;9.45;;
66487;SDS011;53304;54.550;18.526;2022-08-19T10:23:53;17.15;;;9.65;;
66487;SDS011;53304;54.550;18.526;2022-08-19T10:26:24;14.50;;;8.43;;
66487;SDS011;53304;54.550;18.526;2022-08-19T10:28:51;17.88;;;9.52;;
66487;SDS011;53304;54.550;18.526;2022-08-19T10:31:26;14.68;;;9.35;;
66487;SDS011;53304;54.550;18.526;2022-08-19T10:33:54;14.82;;;9.65;;
66487;SDS011;53304;54.550;18.526;2022-08-19T10:36:26;14.93;;;9.23;;
66487;SDS011;53304;54.550;18.526;2022-08-19T10:38:58;15.30;;;9.43;;
66487;SDS011;53304;54.550;18.526;2022-08-19T10:41:26;16.13;;;9.25;;
66487;SDS011;53304;54.550;18.526;2022-08-19T10:43:57;16.80;;;9.35;;
66487;SDS011;53304;54.550;18.526;2022-08-19T10:46:24;12.65;;;8.95;;
66487;SDS011;53304;54.550;18.526;2022-08-19T10:48:53;13.70;;;9.73;;
66487;SDS011;53304;54.550;18.526;2022-08-19T10:51:19;14.65;;;9.40;;
66487;SDS011;53304;54.550;18.526;2022-08-19T10:54:09;15.15;;;9.52;;
66487;SDS011;53304;54.550;18.526;2022-08-19T10:56:36;14.63;;;9.57;;
66487;SDS011;53304;54.550;18.526;2022-08-19T10:59:21;15.05;;;9.35;;
66487;SDS011;53304;54.550;18.526;2022-08-19T11:01:49;11.25;;;8.77;;
66487;SDS011;53304;54.550;18.526;2022-08-19T11:04:15;11.65;;;9.25;;
66487;SDS011;53304;54.550;18.526;2022-08-19T11:06:44;13.50;;;9.48;;
66487;SDS011;53304;54.550;18.526;2022-08-19T11:09:16;13.55;;;9.60;;
66487;SDS011;53304;54.550;18.526;2022-08-19T11:11:44;14.70;;;9.43;;
66487;SDS011;53304;54.550;18.526;2022-08-19T11:14:17;14.15;;;9.30;;
66487;SDS011;53304;54.550;18.526;2022-08-19T11:16:44;14.02;;;9.15;;
66487;SDS011;53304;54.550;18.526;2022-08-19T11:19:11;11.10;;;8.70;;
66487;SDS011;53304;54.550;18.526;2022-08-19T11:21:41;12.63;;;8.60;;
66487;SDS011;53304;54.550;18.526;2022-08-19T11:24:09;11.63;;;8.80;;
66487;SDS011;53304;54.550;18.526;2022-08-19T11:26:36;13.88;;;8.90;;
66487;SDS011;53304;54.550;18.526;2022-08-19T11:29:03;15.35;;;8.95;;
66487;SDS011;53304;54.550;18.526;2022-08-19T11:31:32;13.50;;;8.88;;
66487;SDS011;53304;54.550;18.526;2022-08-19T11:33:59;14.32;;;8.30;;
66487;SDS011;53304;54.550;18.526;2022-08-19T11:36:28;14.50;;;9.13;;
66487;SDS011;53304;54.550;18.526;2022-08-19T11:38:57;11.75;;;8.80;;
66487;SDS011;53304;54.550;18.526;2022-08-19T11:41:23;11.10;;;8.75;;
66487;SDS011;53304;54.550;18.526;2022-08-19T11:43:49;12.38;;;8.68;;
66487;SDS011;53304;54.550;18.526;2022-08-19T11:46:18;12.25;;;8.88;;
66487;SDS011;53304;54.550;18.526;2022-08-19T11:48:49;11.10;;;8.43;;
66487;SDS011;53304;54.550;18.526;2022-08-19T11:51:17;11.77;;;8.43;;
66487;SDS011;53304;54.550;18.526;2022-08-19T11:53:44;13.35;;;9.25;;
66487;SDS011;53304;54.550;18.526;2022-08-19T11:56:10;13.02;;;9.00;;
66487;SDS011;53304;54.550;18.526;2022-08-19T11:58:36;12.40;;;8.70;;
66487;SDS011;53304;54.550;18.526;2022-08-19T12:01:09;11.68;;;9.30;;
66487;SDS011;53304;54.550;18.526;2022-08-19T12:03:43;14.43;;;8.95;;
66487;SDS011;53304;54.550;18.526;2022-08-19T12:06:10;11.10;;;8.70;;
66487;SDS011;53304;54.550;18.526;2022-08-19T12:08:40;10.95;;;8.75;;
66487;SDS011;53304;54.550;18.526;2022-08-19T12:11:09;11.13;;;9.07;;
66487;SDS011;53304;54.550;18.526;2022-08-19T12:13:35;13.13;;;8.85;;
66487;SDS011;53304;54.550;18.526;2022-08-19T12:16:06;12.20;;;8.80;;
66487;SDS011;53304;54.550;18.526;2022-08-19T12:18:40;14.45;;;9.20;;
66487;SDS011;53304;54.550;18.526;2022-08-19T12:21:08;11.73;;;8.77;;
66487;SDS011;53304;54.550;18.526;2022-08-19T12:23:35;12.73;;;8.93;;
66487;SDS011;53304;54.550;18.526;2022-08-19T12:26:02;11.30;;;8.43;;
66487;SDS011;53304;54.550;18.526;2022-08-19T12:28:28;11.80;;;8.93;;
66487;SDS011;53304;54.550;18.526;2022-08-19T12:30:56;11.07;;;8.60;;
66487;SDS011;53304;54.550;18.526;2022-08-19T12:33:22;10.38;;;8.50;;
66487;SDS011;53304;54.550;18.526;2022-08-19T12:35:53;12.27;;;9.15;;
66487;SDS011;53304;54.550;18.526;2022-08-19T12:38:27;10.57;;;8.57;;
66487;SDS011;53304;54.550;18.526;2022-08-19T12:40:52;14.43;;;8.63;;
66487;SDS011;53304;54.550;18.526;2022-08-19T12:43:25;14.07;;;8.65;;
66487;SDS011;53304;54.550;18.526;2022-08-19T12:45:54;13.93;;;9.18;;
66487;SDS011;53304;54.550;18.526;2022-08-19T12:48:19;13.40;;;8.70;;
66487;SDS011;53304;54.550;18.526;2022-08-19T12:50:45;11.82;;;8.38;;
66487;SDS011;53304;54.550;18.526;2022-08-19T12:53:10;13.02;;;8.30;;
66487;SDS011;53304;54.550;18.526;2022-08-19T12:55:41;11.63;;;8.57;;
66487;SDS011;53304;54.550;18.526;2022-08-19T12:58:07;14.93;;;8.80;;
66487;SDS011;53304;54.550;18.526;2022-08-19T13:00:33;11.32;;;8.60;;
66487;SDS011;53304;54.550;18.526;2022-08-19T13:03:01;10.60;;;8.40;;
66487;SDS011;53304;54.550;18.526;2022-08-19T13:05:30;12.75;;;9.02;;
66487;SDS011;53304;54.550;18.526;2022-08-19T13:07:59;9.95;;;8.07;;
66487;SDS011;53304;54.550;18.526;2022-08-19T13:10:28;12.25;;;8.40;;
66487;SDS011;53304;54.550;18.526;2022-08-19T13:12:56;9.75;;;8.18;;
66487;SDS011;53304;54.550;18.526;2022-08-19T13:15:26;13.60;;;7.78;;
66487;SDS011;53304;54.550;18.526;2022-08-19T13:17:56;10.98;;;8.25;;
66487;SDS011;53304;54.550;18.526;2022-08-19T13:20:22;11.27;;;8.00;;
66487;SDS011;53304;54.550;18.526;2022-08-19T13:22:50;11.10;;;8.07;;
66487;SDS011;53304;54.550;18.526;2022-08-19T13:25:16;12.35;;;8.35;;
66487;SDS011;53304;54.550;18.526;2022-08-19T13:27:45;9.57;;;8.18;;
66487;SDS011;53304;54.550;18.526;2022-08-19T13:30:12;11.10;;;8.07;;
66487;SDS011;53304;54.550;18.526;2022-08-19T13:32:57;9.30;;;7.72;;
66487;SDS011;53304;54.550;18.526;2022-08-19T13:35:42;11.00;;;8.52;;
66487;SDS011;53304;54.550;18.526;2022-08-19T13:38:22;8.73;;;7.60;;
66487;SDS011;53304;54.550;18.526;2022-08-19T13:40:48;11.05;;;8.05;;
66487;SDS011;53304;54.550;18.526;2022-08-19T13:43:17;10.13;;;7.85;;
66487;SDS011;53304;54.550;18.526;2022-08-19T13:45:47;10.52;;;7.75;;
66487;SDS011;53304;54.550;18.526;2022-08-19T13:48:13;12.65;;;7.25;;
66487;SDS011;53304;54.550;18.526;2022-08-19T13:50:42;10.30;;;7.75;;
66487;SDS011;53304;54.550;18.526;2022-08-19T13:53:13;11.98;;;7.82;;
66487;SDS011;53304;54.550;18.526;2022-08-19T13:55:39;12.13;;;8.23;;
66487;SDS011;53304;54.550;18.526;2022-08-19T13:58:11;8.83;;;7.70;;
66487;SDS011;53304;54.550;18.526;2022-08-19T14:00:39;9.50;;;8.05;;
66487;SDS011;53304;54.550;18.526;2022-08-19T14:03:11;10.38;;;7.30;;
66487;SDS011;53304;54.550;18.526;2022-08-19T14:05:39;10.27;;;8.00;;
66487;SDS011;53304;54.550;18.526;2022-08-19T14:08:10;12.30;;;8.23;;
66487;SDS011;53304;54.550;18.526;2022-08-19T14:10:37;9.90;;;7.70;;
66487;SDS011;53304;54.550;18.526;2022-08-19T14:13:05;10.40;;;8.18;;
66487;SDS011;53304;54.550;18.526;2022-08-19T14:15:33;11.75;;;8.23;;
66487;SDS011;53304;54.550;18.526;2022-08-19T14:17:59;9.00;;;7.75;;
66487;SDS011;53304;54.550;18.526;2022-08-19T14:20:25;9.60;;;7.88;;
66487;SDS011;53304;54.550;18.526;2022-08-19T14:22:53;8.18;;;7.00;;
66487;SDS011;53304;54.550;18.526;2022-08-19T14:25:23;9.35;;;7.70;;
66487;SDS011;53304;54.550;18.526;2022-08-19T14:27:52;10.93;;;7.78;;
66487;SDS011;53304;54.550;18.526;2022-08-19T14:30:21;12.32;;;8.23;;
66487;SDS011;53304;54.550;18.526;2022-08-19T14:32:53;8.65;;;7.05;;
66487;SDS011;53304;54.550;18.526;2022-08-19T14:35:21;10.15;;;7.70;;
66487;SDS011;53304;54.550;18.526;2022-08-19T14:37:49;11.57;;;7.57;;
66487;SDS011;53304;54.550;18.526;2022-08-19T14:40:19;16.05;;;8.45;;
66487;SDS011;53304;54.550;18.526;2022-08-19T14:42:46;9.63;;;8.13;;
66487;SDS011;53304;54.550;18.526;2022-08-19T14:45:13;9.95;;;7.68;;
66487;SDS011;53304;54.550;18.526;2022-08-19T14:47:43;9.10;;;7.35;;